Time;durP1;ratioP1;P1;durP2;ratioP2;P2;SDS_P1;SDS_P2;PMS_P1;PMS_P2;Temp;Humidity;BMP_temperature;BMP_pressure;BME280_temperature;BME280_humidity;BME280_pressure;Samples;Min_cycle;Max_cycle;Signal;HPM_P1;HPM_P2
2021/10/13 00:01:50;;;;;;;9.52;2.92;;;10.90;93.00;;;;;;5048983;28;20041;-63
2021/10/13 00:04:17;;;;;;;9.98;2.83;;;10.80;93.50;;;;;;5046204;28;20052;-63
2021/10/13 00:06:44;;;;;;;10.93;3.85;;;10.80;93.60;;;;;;5048442;28;20487;-63
2021/10/13 00:09:11;;;;;;;6.95;2.30;;;10.70;93.20;;;;;;5042141;28;20067;-63
2021/10/13 00:11:38;;;;;;;10.18;2.92;;;10.70;93.50;;;;;;5040846;28;20531;-63
2021/10/13 00:14:05;;;;;;;10.60;2.88;;;10.70;93.80;;;;;;5048588;28;20045;-63
2021/10/13 00:16:33;;;;;;;6.85;2.40;;;10.60;93.70;;;;;;5046952;28;20383;-63
2021/10/13 00:19:00;;;;;;;7.18;3.05;;;10.60;94.10;;;;;;5045630;28;20099;-64
2021/10/13 00:21:27;;;;;;;10.35;2.47;;;10.50;94.10;;;;;;5030020;28;20059;-64
2021/10/13 00:23:54;;;;;;;7.85;3.08;;;10.50;94.10;;;;;;5047516;28;20373;-64
2021/10/13 00:26:21;;;;;;;8.65;2.90;;;10.40;94.30;;;;;;5047957;28;20071;-64
2021/10/13 00:28:48;;;;;;;5.65;2.38;;;10.30;94.20;;;;;;5046878;28;20439;-64
2021/10/13 00:31:15;;;;;;;7.43;2.28;;;10.30;94.60;;;;;;5047998;28;20588;-64
2021/10/13 00:33:42;;;;;;;8.20;2.60;;;10.20;94.50;;;;;;5041057;28;20132;-64
2021/10/13 00:36:09;;;;;;;11.20;3.10;;;10.10;94.80;;;;;;5046632;28;20041;-64
2021/10/13 00:38:36;;;;;;;6.85;2.58;;;10.00;94.90;;;;;;5048192;28;20099;-65
2021/10/13 00:41:03;;;;;;;6.05;2.03;;;10.00;95.10;;;;;;5047247;28;20103;-64
2021/10/13 00:43:30;;;;;;;9.20;2.83;;;9.90;95.00;;;;;;5046552;28;20121;-64
2021/10/13 00:45:57;;;;;;;7.90;3.45;;;9.80;94.90;;;;;;5047993;28;20041;-64
2021/10/13 00:48:24;;;;;;;9.38;2.92;;;9.70;95.20;;;;;;5048122;28;20128;-64
2021/10/13 00:50:51;;;;;;;8.10;2.53;;;9.60;95.10;;;;;;5047483;28;20123;-64
2021/10/13 00:53:18;;;;;;;10.13;3.58;;;9.60;95.60;;;;;;5046517;28;20412;-64
2021/10/13 00:55:45;;;;;;;10.02;3.17;;;9.60;95.50;;;;;;5048202;28;20064;-64
2021/10/13 00:58:12;;;;;;;5.25;2.92;;;9.50;95.40;;;;;;5048299;28;20041;-64
2021/10/13 01:00:43;;;;;;;5.25;2.40;;;9.40;95.50;;;;;;5049418;28;20049;-64
2021/10/13 01:03:16;;;;;;;8.13;2.50;;;9.40;95.50;;;;;;5047106;28;20074;-63
2021/10/13 01:05:51;;;;;;;5.07;2.25;;;9.30;95.80;;;;;;5046997;28;20057;-63
2021/10/13 01:08:28;;;;;;;7.15;3.00;;;9.30;95.80;;;;;;5043234;28;20111;-64
2021/10/13 01:11:23;;;;;;;10.35;3.50;;;9.20;95.60;;;;;;5052179;28;20044;-63
2021/10/13 01:14:16;;;;;;;8.27;3.30;;;9.20;96.00;;;;;;5034276;28;20041;-63
2021/10/13 01:16:52;;;;;;;5.05;2.85;;;9.10;96.00;;;;;;5047128;28;20059;-64
2021/10/13 01:19:46;;;;;;;7.15;2.08;;;9.00;96.10;;;;;;5032206;28;20481;-63
2021/10/13 01:22:47;;;;;;;6.68;2.13;;;9.00;95.90;;;;;;5050834;28;20048;-64
2021/10/13 01:25:35;;;;;;;10.30;2.17;;;8.90;95.70;;;;;;5050660;28;20400;-64
2021/10/13 01:28:03;;;;;;;9.07;2.58;;;8.90;96.00;;;;;;5043548;28;20400;-63
2021/10/13 01:30:39;;;;;;;7.50;2.17;;;8.80;95.80;;;;;;5050256;28;20148;-63
2021/10/13 01:33:08;;;;;;;5.45;2.70;;;8.80;96.20;;;;;;5045314;28;20052;-63
2021/10/13 01:35:36;;;;;;;6.32;2.47;;;8.70;96.00;;;;;;5050546;28;20053;-63
2021/10/13 01:38:05;;;;;;;8.40;2.22;;;8.70;96.00;;;;;;5048197;28;20120;-63
2021/10/13 01:40:32;;;;;;;9.35;2.30;;;8.70;95.90;;;;;;5034852;28;20390;-63
2021/10/13 01:43:00;;;;;;;6.28;2.25;;;8.60;95.90;;;;;;5049987;28;20053;-63
2021/10/13 01:45:27;;;;;;;7.05;2.60;;;8.60;96.00;;;;;;5050250;28;20432;-63
2021/10/13 01:47:54;;;;;;;4.85;2.65;;;8.60;96.20;;;;;;5050979;28;20047;-63
2021/10/13 01:50:22;;;;;;;9.35;2.35;;;8.50;96.10;;;;;;5050895;28;20053;-63
2021/10/13 01:52:49;;;;;;;9.07;3.67;;;8.50;96.00;;;;;;5050088;28;20041;-63
2021/10/13 01:55:18;;;;;;;5.45;2.55;;;8.40;96.40;;;;;;5051018;28;20167;-63
2021/10/13 01:57:46;;;;;;;7.00;2.70;;;8.40;95.90;;;;;;5017535;28;20408;-63
2021/10/13 02:00:14;;;;;;;8.65;3.55;;;8.40;96.00;;;;;;5033839;28;20063;-64
2021/10/13 02:02:41;;;;;;;8.43;2.90;;;8.30;96.00;;;;;;5035868;28;20144;-63
2021/10/13 02:05:08;;;;;;;7.13;2.97;;;8.30;96.20;;;;;;5050137;28;20456;-63
2021/10/13 02:07:37;;;;;;;6.55;2.78;;;8.30;96.10;;;;;;5033331;28;20124;-63
2021/10/13 02:10:06;;;;;;;8.00;2.40;;;8.20;96.40;;;;;;5032625;28;20048;-63
2021/10/13 02:12:34;;;;;;;7.70;2.88;;;8.20;96.20;;;;;;5050142;28;20124;-63
2021/10/13 02:15:02;;;;;;;4.25;2.42;;;8.10;96.30;;;;;;5049325;28;20072;-64
2021/10/13 02:17:29;;;;;;;9.38;3.03;;;8.10;96.20;;;;;;5051794;28;20059;-63
2021/10/13 02:19:56;;;;;;;6.80;2.25;;;8.00;96.30;;;;;;5049683;28;20119;-63
2021/10/13 02:22:27;;;;;;;7.50;3.03;;;8.00;96.10;;;;;;5050252;28;20060;-63
2021/10/13 02:24:54;;;;;;;8.15;2.90;;;7.90;96.10;;;;;;5050813;28;20041;-63
2021/10/13 02:27:46;;;;;;;8.93;3.17;;;7.90;96.20;;;;;;5048174;28;20070;-63
2021/10/13 02:30:13;;;;;;;11.50;2.80;;;7.90;96.60;;;;;;5051463;28;20053;-62
2021/10/13 02:32:40;;;;;;;8.68;3.13;;;7.90;96.70;;;;;;5052748;28;20049;-63
2021/10/13 02:35:07;;;;;;;12.38;2.90;;;7.80;96.30;;;;;;5033134;28;20040;-64
2021/10/13 02:37:34;;;;;;;7.75;2.78;;;7.80;96.60;;;;;;5049868;28;20055;-63
2021/10/13 02:40:02;;;;;;;5.10;2.85;;;7.80;96.10;;;;;;5049425;28;20092;-63
2021/10/13 02:42:28;;;;;;;7.00;2.75;;;7.80;96.40;;;;;;5045686;28;20055;-63
2021/10/13 02:44:55;;;;;;;7.22;3.15;;;7.70;96.30;;;;;;5049582;28;20115;-64
2021/10/13 02:47:47;;;;;;;5.25;2.53;;;7.70;96.60;;;;;;5049204;28;20163;-64
2021/10/13 02:50:22;;;;;;;8.73;2.72;;;7.70;96.70;;;;;;5032797;28;20055;-63
2021/10/13 02:52:52;;;;;;;8.55;2.75;;;7.60;96.30;;;;;;5049398;28;20152;-63
2021/10/13 02:55:20;;;;;;;;;;;7.60;97.00;;;;;;5050250;28;20408;-63
2021/10/13 02:58:04;;;;;;;7.10;2.63;;;7.60;96.40;;;;;;5064581;28;19969;-63
2021/10/13 03:00:32;;;;;;;10.93;3.58;;;7.50;96.50;;;;;;5048450;28;20491;-63
2021/10/13 03:03:28;;;;;;;6.63;3.05;;;7.50;96.60;;;;;;5048790;28;20097;-63
2021/10/13 03:05:56;;;;;;;4.50;2.80;;;7.40;96.40;;;;;;5048664;28;20051;-63
2021/10/13 03:08:24;;;;;;;4.22;2.45;;;7.40;96.60;;;;;;5049138;28;20443;-63
2021/10/13 03:10:54;;;;;;;6.15;3.00;;;7.40;96.70;;;;;;5048664;28;20540;-63
2021/10/13 03:13:23;;;;;;;8.27;2.58;;;7.30;96.50;;;;;;5049018;28;20504;-64
2021/10/13 03:15:51;;;;;;;7.85;2.72;;;7.30;96.60;;;;;;5049077;28;20079;-62
2021/10/13 03:18:18;;;;;;;6.60;2.47;;;7.30;96.50;;;;;;5015644;28;20136;-63
2021/10/13 03:20:47;;;;;;;5.65;2.10;;;7.30;96.50;;;;;;5031417;28;20424;-63
2021/10/13 03:23:16;;;;;;;3.97;2.20;;;7.20;96.70;;;;;;5033094;28;20114;-64
2021/10/13 03:25:43;;;;;;;3.25;2.10;;;7.20;96.70;;;;;;5032689;28;20088;-63
2021/10/13 03:28:12;;;;;;;4.63;2.63;;;7.10;96.50;;;;;;5050276;28;20154;-63
2021/10/13 03:30:41;;;;;;;3.80;2.33;;;7.10;96.80;;;;;;5050642;28;20111;-62
2021/10/13 03:33:07;;;;;;;3.65;2.20;;;7.10;96.40;;;;;;5042494;28;20115;-62
2021/10/13 03:35:34;;;;;;;4.85;2.70;;;7.00;97.00;;;;;;5049644;28;20170;-63
2021/10/13 03:38:02;;;;;;;5.75;2.50;;;7.00;97.10;;;;;;5047643;28;20386;-63
2021/10/13 03:40:30;;;;;;;6.07;2.67;;;7.00;97.10;;;;;;5047693;28;20079;-62
2021/10/13 03:42:57;;;;;;;6.82;2.58;;;7.00;96.90;;;;;;5049937;28;20080;-63
2021/10/13 03:45:24;;;;;;;4.28;2.63;;;7.00;96.90;;;;;;5031517;28;20135;-63
2021/10/13 03:47:51;;;;;;;13.10;5.35;;;6.90;96.90;;;;;;5049312;28;20051;-62
2021/10/13 03:50:19;;;;;;;3.90;2.50;;;6.90;96.80;;;;;;5032056;28;20041;-63
2021/10/13 03:52:46;;;;;;;4.57;2.30;;;6.90;97.00;;;;;;5050178;28;20041;-62
2021/10/13 03:55:15;;;;;;;4.55;2.58;;;6.80;96.90;;;;;;5048184;28;20484;-63
2021/10/13 03:57:42;;;;;;;7.05;2.10;;;6.80;97.00;;;;;;5047541;28;20489;-62
2021/10/13 04:00:11;;;;;;;4.78;2.10;;;6.80;97.00;;;;;;5048201;28;20041;-62
2021/10/13 04:02:38;;;;;;;9.82;3.33;;;6.80;97.00;;;;;;5050258;28;20520;-64
2021/10/13 04:05:06;;;;;;;5.47;2.92;;;6.80;97.00;;;;;;5048819;28;20048;-62
2021/10/13 04:07:32;;;;;;;7.93;3.42;;;6.80;97.40;;;;;;5047580;28;20449;-62
2021/10/13 04:10:00;;;;;;;5.20;3.05;;;6.80;97.60;;;;;;5047691;28;20423;-62
2021/10/13 04:12:28;;;;;;;8.75;2.50;;;6.80;97.30;;;;;;5045737;28;20051;-62
2021/10/13 04:14:55;;;;;;;6.30;2.92;;;6.70;97.00;;;;;;5047486;28;20072;-62
2021/10/13 04:17:22;;;;;;;3.38;2.60;;;6.80;97.80;;;;;;5031084;28;20059;-62
2021/10/13 04:19:49;;;;;;;7.57;2.58;;;6.70;97.20;;;;;;5047407;28;20067;-63
2021/10/13 04:22:16;;;;;;;5.53;2.50;;;6.70;97.20;;;;;;5049666;28;20044;-64
2021/10/13 04:24:43;;;;;;;7.20;2.60;;;6.70;97.20;;;;;;5048263;28;20045;-63
2021/10/13 04:27:10;;;;;;;7.72;2.67;;;6.70;97.20;;;;;;5047319;28;20558;-63
2021/10/13 04:29:37;;;;;;;5.05;2.38;;;6.60;97.30;;;;;;5048762;28;20121;-63
2021/10/13 04:32:04;;;;;;;5.35;2.90;;;6.60;97.00;;;;;;5049294;28;20052;-63
2021/10/13 04:34:31;;;;;;;4.65;2.22;;;6.60;97.10;;;;;;5039159;28;20053;-63
2021/10/13 04:36:58;;;;;;;4.18;1.90;;;6.50;97.00;;;;;;5049114;28;20049;-63
2021/10/13 04:39:25;;;;;;;5.78;2.58;;;6.40;96.80;;;;;;5049706;28;20366;-63
2021/10/13 04:41:52;;;;;;;6.43;3.10;;;6.50;97.40;;;;;;5048838;28;20049;-63
2021/10/13 04:44:19;;;;;;;3.95;2.53;;;6.40;97.10;;;;;;5048267;28;20059;-62
2021/10/13 04:46:46;;;;;;;4.78;2.75;;;6.40;97.20;;;;;;5047806;28;20045;-62
2021/10/13 04:49:14;;;;;;;4.93;2.40;;;6.40;97.50;;;;;;5048930;28;20051;-63
2021/10/13 04:51:41;;;;;;;3.88;2.58;;;6.30;97.10;;;;;;5051672;28;20044;-63
2021/10/13 04:54:08;;;;;;;6.00;2.40;;;6.30;97.20;;;;;;5052866;28;20340;-63
2021/10/13 04:56:35;;;;;;;3.58;2.10;;;6.30;96.90;;;;;;5053248;28;20092;-63
2021/10/13 04:59:01;;;;;;;3.60;2.00;;;6.20;97.00;;;;;;5051109;28;20377;-63
2021/10/13 05:01:28;;;;;;;4.68;2.20;;;6.20;96.90;;;;;;5054303;28;20060;-63
2021/10/13 05:03:56;;;;;;;3.65;2.20;;;6.20;97.10;;;;;;5053442;28;20432;-63
2021/10/13 05:06:23;;;;;;;5.85;2.38;;;6.20;96.90;;;;;;5051695;28;20479;-62
2021/10/13 05:08:50;;;;;;;6.85;2.38;;;6.10;97.00;;;;;;5053134;28;20453;-62
2021/10/13 05:11:16;;;;;;;4.68;3.33;;;6.10;97.20;;;;;;5052018;28;20043;-62
2021/10/13 05:13:43;;;;;;;7.35;2.53;;;6.10;97.20;;;;;;5052150;28;20055;-63
2021/10/13 05:16:10;;;;;;;5.88;2.75;;;6.10;97.60;;;;;;5052010;28;20162;-62
2021/10/13 05:18:37;;;;;;;4.05;2.47;;;6.10;97.00;;;;;;5051966;28;20102;-63
2021/10/13 05:21:04;;;;;;;9.10;3.67;;;6.10;97.40;;;;;;5053081;28;20059;-63
2021/10/13 05:23:31;;;;;;;6.05;2.58;;;6.10;97.30;;;;;;5050993;28;20049;-63
2021/10/13 05:25:58;;;;;;;4.70;2.50;;;6.10;97.20;;;;;;5052582;28;20053;-63
2021/10/13 05:28:25;;;;;;;5.45;2.60;;;6.00;97.30;;;;;;5052118;28;20048;-62
2021/10/13 05:30:52;;;;;;;5.38;2.85;;;6.00;97.40;;;;;;5052573;28;20048;-63
2021/10/13 05:33:19;;;;;;;5.53;2.78;;;6.00;97.20;;;;;;5045383;28;20045;-62
2021/10/13 05:35:46;;;;;;;6.75;3.03;;;6.00;97.60;;;;;;5034159;28;20464;-62
2021/10/13 05:38:13;;;;;;;5.80;2.70;;;5.90;97.30;;;;;;5034528;28;20148;-64
2021/10/13 05:40:40;;;;;;;5.40;2.90;;;5.90;97.30;;;;;;5050548;28;20052;-63
2021/10/13 05:43:07;;;;;;;9.80;3.70;;;5.90;97.90;;;;;;5050086;28;20527;-62
2021/10/13 05:45:35;;;;;;;6.05;3.00;;;5.90;97.60;;;;;;5049373;28;20456;-63
2021/10/13 05:48:02;;;;;;;15.88;8.50;;;5.90;97.40;;;;;;5050374;28;20555;-62
2021/10/13 05:50:29;;;;;;;14.00;6.95;;;5.90;97.80;;;;;;5030192;28;20120;-64
2021/10/13 05:52:56;;;;;;;64.95;45.38;;;5.90;97.20;;;;;;5032886;28;20049;-73
2021/10/13 05:55:41;;;;;;;34.00;21.45;;;5.90;97.60;;;;;;5052134;28;20085;-73
2021/10/13 05:58:09;;;;;;;22.40;15.25;;;5.80;97.40;;;;;;5050603;28;20528;-79
2021/10/13 06:00:36;;;;;;;16.48;8.05;;;5.80;97.50;;;;;;5053430;28;20051;-73
2021/10/13 06:03:03;;;;;;;8.85;6.05;;;5.80;97.90;;;;;;5046341;28;20408;-75
2021/10/13 06:05:30;;;;;;;9.60;5.10;;;5.80;97.50;;;;;;5046606;28;20614;-73
2021/10/13 06:07:57;;;;;;;11.27;5.20;;;5.90;97.80;;;;;;5049422;28;20045;-72
2021/10/13 06:10:24;;;;;;;9.07;5.43;;;5.90;98.20;;;;;;5034510;28;20047;-73
2021/10/13 06:12:51;;;;;;;17.55;7.70;;;6.00;98.50;;;;;;5050862;28;20416;-74
2021/10/13 06:15:19;;;;;;;13.35;5.65;;;6.10;98.70;;;;;;5033809;28;20098;-71
2021/10/13 06:17:46;;;;;;;18.58;11.32;;;6.20;98.90;;;;;;5032576;28;20047;-72
2021/10/13 06:20:13;;;;;;;13.05;6.63;;;6.30;98.70;;;;;;5050944;28;20159;-72
2021/10/13 06:22:40;;;;;;;6.45;5.15;;;6.40;98.40;;;;;;5050941;28;20177;-72
2021/10/13 06:25:08;;;;;;;10.93;5.15;;;6.50;98.50;;;;;;5056154;28;20048;-73
2021/10/13 06:27:35;;;;;;;9.07;5.50;;;6.60;98.50;;;;;;5058702;28;20049;-73
2021/10/13 06:30:02;;;;;;;14.10;5.95;;;6.70;98.60;;;;;;5050248;28;20045;-73
2021/10/13 06:32:29;;;;;;;12.95;5.85;;;6.80;98.60;;;;;;5052479;28;20052;-73
2021/10/13 06:34:56;;;;;;;12.27;5.70;;;6.80;98.40;;;;;;5050846;28;20061;-71
2021/10/13 06:37:22;;;;;;;13.82;4.90;;;6.90;98.20;;;;;;5050384;28;20055;-71
2021/10/13 06:39:50;;;;;;;10.90;6.03;;;7.00;98.10;;;;;;5034143;28;20136;-72
2021/10/13 06:42:16;;;;;;;9.32;4.80;;;7.00;98.40;;;;;;5050207;28;20052;-72
2021/10/13 06:44:43;;;;;;;8.90;5.03;;;7.10;98.30;;;;;;5045483;28;20127;-72
2021/10/13 06:47:12;;;;;;;16.08;5.03;;;7.20;98.30;;;;;;5034215;28;20052;-72
2021/10/13 06:49:39;;;;;;;16.77;6.82;;;7.20;98.00;;;;;;5050079;28;20238;-72
2021/10/13 06:52:06;;;;;;;10.05;5.70;;;7.20;97.70;;;;;;5049455;28;20069;-71
2021/10/13 06:54:33;;;;;;;10.70;5.10;;;7.30;97.90;;;;;;5047902;28;20152;-73
2021/10/13 06:57:00;;;;;;;11.90;6.68;;;7.30;97.60;;;;;;5049211;28;20055;-73
2021/10/13 06:59:27;;;;;;;21.27;10.30;;;7.40;97.90;;;;;;5030974;28;20500;-72
2021/10/13 07:01:54;;;;;;;21.45;8.05;;;7.40;97.80;;;;;;5059000;28;20441;-78
2021/10/13 07:04:21;;;;;;;11.25;5.72;;;7.50;97.80;;;;;;5040209;28;20481;-82
2021/10/13 07:06:50;;;;;;;10.10;6.57;;;7.50;97.80;;;;;;5048846;28;20044;-86
2021/10/13 07:09:17;;;;;;;13.15;7.10;;;7.60;98.00;;;;;;5047365;28;20045;-79
2021/10/13 07:11:44;;;;;;;11.18;5.93;;;7.60;97.80;;;;;;5048830;28;20045;-68
2021/10/13 07:14:11;;;;;;;8.60;6.00;;;7.70;98.00;;;;;;5046673;28;20191;-66
2021/10/13 07:16:38;;;;;;;8.70;6.32;;;7.70;98.00;;;;;;5031173;28;20559;-66
2021/10/13 07:19:05;;;;;;;9.90;6.45;;;7.80;98.10;;;;;;5046348;28;20861;-66
2021/10/13 07:21:32;;;;;;;14.95;6.38;;;7.90;97.50;;;;;;5047071;28;20750;-65
2021/10/13 07:23:59;;;;;;;11.38;6.20;;;7.90;98.10;;;;;;5046054;28;20047;-64
2021/10/13 07:26:26;;;;;;;11.23;6.88;;;8.00;98.00;;;;;;5049053;28;20049;-66
2021/10/13 07:28:53;;;;;;;15.80;6.88;;;8.10;98.00;;;;;;5046803;28;20080;-64
2021/10/13 07:31:20;;;;;;;16.23;6.90;;;8.20;97.70;;;;;;5049866;28;21056;-63
2021/10/13 07:33:47;;;;;;;10.07;6.07;;;8.20;97.50;;;;;;5047351;28;20056;-63
2021/10/13 07:36:14;;;;;;;13.00;6.82;;;8.30;97.50;;;;;;5048307;28;20131;-65
2021/10/13 07:38:42;;;;;;;27.90;19.10;;;8.40;97.70;;;;;;5025026;28;20064;-66
2021/10/13 07:41:14;;;;;;;12.95;9.23;;;8.40;97.60;;;;;;5027086;28;20061;-72
2021/10/13 07:43:41;;;;;;;21.27;8.70;;;8.50;97.50;;;;;;5046316;28;20063;-73
2021/10/13 07:46:08;;;;;;;9.85;5.38;;;8.60;97.90;;;;;;5047513;28;20591;-75
2021/10/13 07:48:35;;;;;;;10.90;5.20;;;8.70;96.90;;;;;;5048085;28;20057;-74
2021/10/13 07:51:02;;;;;;;11.93;5.97;;;8.70;97.00;;;;;;5048163;28;20484;-75
2021/10/13 07:53:31;;;;;;;12.95;6.13;;;8.80;96.60;;;;;;5048308;28;20588;-75
2021/10/13 07:55:58;;;;;;;12.05;6.35;;;8.90;96.60;;;;;;5046918;28;20504;-67
2021/10/13 07:58:25;;;;;;;14.90;6.93;;;8.90;96.60;;;;;;5044676;28;20130;-68
2021/10/13 08:00:52;;;;;;;20.20;6.90;;;9.00;97.60;;;;;;5044059;28;20408;-61
2021/10/13 08:03:22;;;;;;;10.18;5.43;;;9.10;97.80;;;;;;5046346;28;20049;-61
2021/10/13 08:05:50;;;;;;;14.13;6.32;;;9.20;97.60;;;;;;5046108;28;20049;-61
2021/10/13 08:08:17;;;;;;;8.13;4.40;;;9.30;97.80;;;;;;5046301;28;20048;-62
2021/10/13 08:10:44;;;;;;;11.35;5.60;;;9.30;97.40;;;;;;5048337;28;20071;-61
2021/10/13 08:13:11;;;;;;;10.27;5.13;;;9.40;97.60;;;;;;5026015;28;20142;-64
2021/10/13 08:15:39;;;;;;;8.20;5.35;;;9.50;97.50;;;;;;5033174;28;20757;-65
2021/10/13 08:18:06;;;;;;;9.85;4.60;;;9.60;97.40;;;;;;5048132;28;20079;-65
2021/10/13 08:20:33;;;;;;;8.43;5.25;;;9.60;97.00;;;;;;5039030;28;20111;-65
2021/10/13 08:23:00;;;;;;;7.28;5.18;;;9.70;97.30;;;;;;5037671;28;20144;-65
2021/10/13 08:25:27;;;;;;;13.77;6.25;;;9.80;96.40;;;;;;5047259;28;20045;-64
2021/10/13 08:27:54;;;;;;;7.90;5.50;;;9.80;96.50;;;;;;5025884;28;20112;-66
2021/10/13 08:30:21;;;;;;;16.60;6.53;;;9.90;96.30;;;;;;5047686;28;20128;-64
2021/10/13 08:32:48;;;;;;;13.77;5.90;;;10.00;96.50;;;;;;5027343;28;20048;-65
2021/10/13 08:35:15;;;;;;;10.55;5.93;;;10.00;95.70;;;;;;5042705;28;20504;-71
2021/10/13 08:37:43;;;;;;;11.85;5.95;;;10.00;95.60;;;;;;5048377;28;20428;-70
2021/10/13 08:40:11;;;;;;;10.35;6.53;;;10.00;96.00;;;;;;5048981;28;20078;-65
2021/10/13 08:42:54;;;;;;;12.43;5.57;;;10.10;96.40;;;;;;5048461;28;20052;-65
2021/10/13 08:45:22;;;;;;;12.93;6.03;;;10.20;96.40;;;;;;5048749;28;20045;-65
2021/10/13 08:47:49;;;;;;;13.93;6.22;;;10.30;96.40;;;;;;5048628;28;20068;-65
2021/10/13 08:50:17;;;;;;;13.05;6.15;;;10.30;96.00;;;;;;5050040;28;20449;-65
2021/10/13 08:52:45;;;;;;;18.30;7.20;;;10.40;96.10;;;;;;5048804;28;20060;-65
2021/10/13 08:55:13;;;;;;;15.82;6.45;;;10.40;96.40;;;;;;5048526;28;20045;-65
2021/10/13 08:57:40;;;;;;;11.75;6.80;;;10.60;96.60;;;;;;5047907;28;20045;-65
2021/10/13 09:00:07;;;;;;;11.77;6.18;;;10.70;96.30;;;;;;5049772;28;20045;-65
2021/10/13 09:02:44;;;;;;;12.35;6.63;;;10.80;96.20;;;;;;5050041;28;20056;-65
2021/10/13 09:05:16;;;;;;;11.10;6.10;;;10.80;95.50;;;;;;5048377;28;20041;-65
2021/10/13 09:07:53;;;;;;;12.05;6.20;;;10.90;95.40;;;;;;5049757;28;20080;-67
2021/10/13 09:10:40;;;;;;;13.18;6.55;;;11.00;95.60;;;;;;5032041;28;20469;-66
2021/10/13 09:13:18;;;;;;;10.95;6.43;;;11.10;95.20;;;;;;5048317;28;20512;-65
2021/10/13 09:15:52;;;;;;;14.02;7.00;;;11.10;95.20;;;;;;5028550;28;20453;-65
2021/10/13 09:18:23;;;;;;;12.05;6.75;;;11.20;95.50;;;;;;5028199;28;20478;-66
2021/10/13 09:20:51;;;;;;;11.73;7.03;;;11.30;95.20;;;;;;5028496;28;20133;-66
2021/10/13 09:23:31;;;;;;;17.33;7.03;;;11.30;95.30;;;;;;5028408;28;20095;-65
2021/10/13 09:26:11;;;;;;;11.77;7.65;;;11.40;94.90;;;;;;5046068;28;20169;-65
2021/10/13 09:28:40;;;;;;;9.65;6.28;;;11.50;94.40;;;;;;5044298;28;20064;-65
2021/10/13 09:31:14;;;;;;;12.18;5.93;;;11.60;94.70;;;;;;5037475;28;20080;-65
2021/10/13 09:33:59;;;;;;;12.52;6.95;;;11.70;94.40;;;;;;5048133;28;20508;-65
2021/10/13 09:36:39;;;;;;;13.05;6.88;;;11.70;94.70;;;;;;5049556;28;20107;-65
2021/10/13 09:39:06;;;;;;;13.50;6.90;;;11.80;92.90;;;;;;5052610;28;20053;-66
2021/10/13 09:41:54;;;;;;;11.85;6.57;;;11.80;92.70;;;;;;5051912;28;20088;-65
2021/10/13 09:44:21;;;;;;;12.40;7.05;;;11.70;92.00;;;;;;5051714;28;20131;-66
2021/10/13 09:46:48;;;;;;;12.52;6.80;;;11.60;92.20;;;;;;5052873;28;20121;-65
2021/10/13 09:49:39;;;;;;;12.25;6.53;;;11.50;92.40;;;;;;5051233;28;20085;-65
2021/10/13 09:52:12;;;;;;;9.23;5.82;;;11.40;92.00;;;;;;5053469;28;20136;-65
2021/10/13 09:54:41;;;;;;;10.63;6.10;;;11.30;91.90;;;;;;5053399;28;20208;-65
2021/10/13 09:57:15;;;;;;;;;;;11.30;92.40;;;;;;5052241;28;20041;-65
2021/10/13 09:59:58;;;;;;;11.73;6.32;;;11.30;92.90;;;;;;5051944;28;19924;-66
2021/10/13 10:02:25;;;;;;;10.82;7.28;;;11.30;92.00;;;;;;5052945;28;20052;-65
2021/10/13 10:04:53;;;;;;;13.00;7.07;;;11.20;93.40;;;;;;5051614;28;20052;-64
2021/10/13 10:07:20;;;;;;;13.90;6.03;;;11.30;93.10;;;;;;5051385;28;20059;-65
2021/10/13 10:10:23;;;;;;;13.57;7.82;;;11.30;93.40;;;;;;5034864;28;20067;-65
2021/10/13 10:13:06;;;;;;;10.95;6.93;;;11.30;92.40;;;;;;5030036;28;20398;-64
2021/10/13 10:15:46;;;;;;;11.07;7.30;;;11.30;92.50;;;;;;5040772;28;20049;-64
2021/10/13 10:18:32;;;;;;;12.05;6.78;;;11.30;92.70;;;;;;5050834;28;20076;-65
2021/10/13 10:21:41;;;;;;;10.18;6.32;;;11.30;91.90;;;;;;5051130;28;20053;-65
2021/10/13 10:24:26;;;;;;;9.73;6.45;;;11.40;91.70;;;;;;4994027;28;20514;-65
2021/10/13 10:27:13;;;;;;;11.75;7.25;;;11.40;92.00;;;;;;5010580;28;20053;-65
2021/10/13 10:29:40;;;;;;;12.35;6.47;;;11.40;92.90;;;;;;5042513;28;20139;-65
2021/10/13 10:32:18;;;;;;;13.60;7.80;;;11.40;92.10;;;;;;5020346;28;20040;-65
2021/10/13 10:35:21;;;;;;;13.35;6.78;;;11.50;92.00;;;;;;5050613;28;20091;-65
2021/10/13 10:37:52;;;;;;;12.68;7.57;;;11.60;92.20;;;;;;5010443;28;20125;-65
2021/10/13 10:40:32;;;;;;;10.95;6.13;;;11.60;91.70;;;;;;5045127;28;20060;-65
2021/10/13 10:42:59;;;;;;;12.75;6.90;;;11.60;91.80;;;;;;5050893;28;20053;-66
2021/10/13 10:45:55;;;;;;;11.10;5.78;;;11.70;92.00;;;;;;5050404;28;20409;-61
2021/10/13 10:48:27;;;;;;;20.40;15.55;;;11.80;91.60;;;;;;5041819;28;20342;-62
2021/10/13 10:50:55;;;;;;;49.72;33.08;;;11.90;91.30;;;;;;5049913;28;20047;-63
2021/10/13 10:53:38;;;;;;;41.97;22.10;;;12.00;91.30;;;;;;5050244;28;20539;-61
2021/10/13 10:56:21;;;;;;;12.88;8.18;;;12.10;91.40;;;;;;5049682;28;20052;-60
2021/10/13 10:59:04;;;;;;;10.93;6.68;;;12.20;91.10;;;;;;5049174;28;20072;-61
2021/10/13 11:01:32;;;;;;;9.68;6.07;;;12.30;90.30;;;;;;5053576;28;20045;-61
2021/10/13 11:04:04;;;;;;;12.13;5.80;;;12.40;90.90;;;;;;5050555;28;20085;-63
2021/10/13 11:06:33;;;;;;;12.80;5.70;;;12.40;90.80;;;;;;5033757;28;20084;-63
2021/10/13 11:09:06;;;;;;;12.35;5.15;;;12.40;90.80;;;;;;5033628;28;20124;-62
2021/10/13 11:11:36;;;;;;;8.65;5.20;;;12.40;91.20;;;;;;5029835;28;20057;-66
2021/10/13 11:14:25;;;;;;;9.80;5.00;;;12.40;91.20;;;;;;5041674;28;20041;-69
2021/10/13 11:16:57;;;;;;;;;;;12.40;90.90;;;;;;5050124;28;20136;-66
2021/10/13 11:19:28;;;;;;;36.08;25.60;;;12.50;90.80;;;;;;5051387;28;19921;-64
2021/10/13 11:22:06;;;;;;;55.90;41.55;;;12.70;90.50;;;;;;5033872;28;20389;-66
2021/10/13 11:24:39;;;;;;;28.20;16.58;;;12.80;90.00;;;;;;5050189;28;20768;-71
2021/10/13 11:27:06;;;;;;;57.20;35.25;;;12.90;90.40;;;;;;5033846;28;20124;-70
2021/10/13 11:29:35;;;;;;;19.08;7.13;;;12.90;90.20;;;;;;5024044;28;20049;-71
2021/10/13 11:32:14;;;;;;;11.77;5.10;;;12.90;89.90;;;;;;5048962;28;20496;-72
2021/10/13 11:35:00;;;;;;;7.93;4.47;;;13.00;90.40;;;;;;5048663;28;20557;-70
2021/10/13 11:37:27;;;;;;;8.18;4.18;;;13.10;90.20;;;;;;5049954;28;20096;-70
2021/10/13 11:39:54;;;;;;;9.77;5.03;;;13.20;89.50;;;;;;5050743;28;20222;-70
2021/10/13 11:42:24;;;;;;;8.77;4.25;;;13.20;89.50;;;;;;5050573;28;20048;-71
2021/10/13 11:44:51;;;;;;;;;;;13.20;89.40;;;;;;5033032;28;20055;-70
2021/10/13 11:47:31;;;;;;;10.95;3.85;;;13.20;90.10;;;;;;5040448;28;20008;-71
2021/10/13 11:50:10;;;;;;;8.85;4.18;;;13.30;90.20;;;;;;5048175;28;20049;-71
2021/10/13 11:52:40;;;;;;;93.72;66.93;;;13.40;90.30;;;;;;5047148;28;20079;-71
2021/10/13 11:55:09;;;;;;;201.50;154.65;;;13.50;90.10;;;;;;5070665;28;20052;-69
2021/10/13 11:57:37;;;;;;;65.03;47.17;;;13.60;90.10;;;;;;5049488;28;20464;-71
2021/10/13 12:00:21;;;;;;;52.67;42.17;;;13.70;89.60;;;;;;5031749;28;20067;-72
2021/10/13 12:03:03;;;;;;;8.60;6.20;;;13.70;89.00;;;;;;5046610;28;20045;-71
2021/10/13 12:05:34;;;;;;;5.28;3.53;;;13.80;89.20;;;;;;5048997;28;20437;-71
2021/10/13 12:08:15;;;;;;;6.10;3.78;;;14.00;88.10;;;;;;5028945;28;20049;-71
2021/10/13 12:10:43;;;;;;;8.80;3.72;;;14.10;88.10;;;;;;5044800;28;20053;-72
2021/10/13 12:13:14;;;;;;;5.40;3.30;;;14.30;86.90;;;;;;5048993;28;20088;-72
2021/10/13 12:15:43;;;;;;;8.77;3.50;;;14.40;86.30;;;;;;5049604;28;20060;-72
2021/10/13 12:18:20;;;;;;;6.18;3.28;;;14.60;85.90;;;;;;5028127;28;20088;-72
2021/10/13 12:21:00;;;;;;;9.20;3.25;;;14.60;84.10;;;;;;5031078;28;20057;-72
2021/10/13 12:23:28;;;;;;;10.00;4.20;;;14.80;84.70;;;;;;5047794;28;20049;-72
2021/10/13 12:25:55;;;;;;;7.45;3.70;;;14.90;86.60;;;;;;5047907;28;20053;-72
2021/10/13 12:28:28;;;;;;;8.82;3.45;;;15.00;87.50;;;;;;5048539;28;20091;-72
2021/10/13 12:31:02;;;;;;;6.53;2.75;;;15.20;83.50;;;;;;5049886;28;20119;-72
2021/10/13 12:33:59;;;;;;;5.30;2.83;;;15.30;82.10;;;;;;5047695;28;20044;-72
2021/10/13 12:36:36;;;;;;;6.20;3.63;;;15.30;84.60;;;;;;5049729;28;20125;-70
2021/10/13 12:39:10;;;;;;;9.75;3.30;;;15.40;82.80;;;;;;5048523;28;20471;-72
2021/10/13 12:41:38;;;;;;;6.93;3.10;;;15.40;81.60;;;;;;5047855;28;20117;-73
2021/10/13 12:44:15;;;;;;;4.38;2.88;;;15.50;83.60;;;;;;5049425;28;20060;-72
2021/10/13 12:47:01;;;;;;;7.60;3.47;;;15.40;84.70;;;;;;5049796;28;20056;-70
2021/10/13 12:49:42;;;;;;;9.10;3.17;;;15.40;84.50;;;;;;5033116;28;20045;-72
2021/10/13 12:52:22;;;;;;;11.90;3.85;;;15.40;82.50;;;;;;5032012;28;20056;-72
2021/10/13 12:54:55;;;;;;;7.07;3.60;;;15.40;82.60;;;;;;5048471;28;20049;-72
2021/10/13 12:57:27;;;;;;;4.28;2.63;;;15.50;82.70;;;;;;5047933;28;20406;-73
2021/10/13 12:59:54;;;;;;;7.82;3.58;;;15.60;82.20;;;;;;5031387;28;20061;-72
2021/10/13 13:02:25;;;;;;;5.38;2.90;;;15.70;84.70;;;;;;5033777;28;20098;-72
2021/10/13 13:04:54;;;;;;;5.50;3.10;;;15.80;84.80;;;;;;5028059;28;20486;-72
2021/10/13 13:07:22;;;;;;;4.72;3.03;;;15.90;83.90;;;;;;5048589;28;20439;-73